Time;durP1;ratioP1;P1;durP2;ratioP2;P2;SDS_P1;SDS_P2;PMS_P1;PMS_P2;Temp;Humidity;BMP_temperature;BMP_pressure;BME280_temperature;BME280_humidity;BME280_pressure;Samples;Min_cycle;Max_cycle;Signal;HPM_P1;HPM_P2
2022/09/12 00:01:09;;;;;;;4.05;3.10;;;;;;;14.50;90.00;94422.47;5131218;27;20235;-75
2022/09/12 00:03:36;;;;;;;4.03;2.65;;;;;;;14.47;89.85;94436.84;5131523;27;20236;-74
2022/09/12 00:06:10;;;;;;;2.78;2.38;;;;;;;14.44;89.88;94437.53;5130797;27;20702;-75
2022/09/12 00:08:38;;;;;;;4.00;2.72;;;;;;;14.51;89.82;94437.69;5130921;28;20199;-75
2022/09/12 00:11:07;;;;;;;3.95;2.72;;;;;;;14.48;90.09;94443.88;5130777;27;20208;-76
2022/09/12 00:13:34;;;;;;;5.30;3.30;;;;;;;14.44;90.35;94448.44;5130714;28;20801;-75
2022/09/12 00:16:01;;;;;;;3.67;2.70;;;;;;;14.43;89.79;94447.66;5117032;28;20227;-76
2022/09/12 00:18:28;;;;;;;5.25;2.90;;;;;;;14.43;89.44;94450.38;5130729;27;20197;-76
2022/09/12 00:20:55;;;;;;;4.65;3.50;;;;;;;14.37;90.11;94449.03;5130495;27;20245;-76
2022/09/12 00:23:23;;;;;;;3.33;2.05;;;;;;;14.42;89.63;94450.72;5130455;28;20228;-76
2022/09/12 00:25:50;;;;;;;7.63;4.32;;;;;;;14.42;89.41;94451.53;5131188;28;20257;-75
2022/09/12 00:28:18;;;;;;;3.15;2.35;;;;;;;14.50;88.11;94455.97;5124036;28;20200;-74
2022/09/12 00:30:48;;;;;;;3.92;2.40;;;;;;;14.55;87.15;94454.91;5130827;27;20196;-76
2022/09/12 00:33:16;;;;;;;3.05;2.63;;;;;;;14.52;87.56;94455.63;5130850;28;20197;-75
2022/09/12 00:35:44;;;;;;;4.60;3.00;;;;;;;14.56;87.35;94446.38;5130594;28;20263;-76
2022/09/12 00:38:11;;;;;;;3.97;2.97;;;;;;;14.52;87.31;94444.72;5129796;27;20197;-77
2022/09/12 00:40:40;;;;;;;4.25;3.20;;;;;;;14.47;88.42;94447.75;5130961;27;20249;-77
2022/09/12 00:43:12;;;;;;;7.15;2.97;;;;;;;14.40;88.09;94456.53;5132373;27;20692;-76
2022/09/12 00:45:41;;;;;;;3.22;2.92;;;;;;;14.39;88.02;94451.41;5134704;27;20286;-76
2022/09/12 00:48:22;;;;;;;4.32;2.83;;;;;;;14.31;88.37;94449.69;5134169;27;20224;-76
2022/09/12 00:50:49;;;;;;;3.63;2.63;;;;;;;14.32;87.20;94451.25;5134774;27;20219;-76
2022/09/12 00:53:17;;;;;;;2.72;1.88;;;;;;;14.28;87.16;94451.19;5134486;27;20284;-76
2022/09/12 00:55:50;;;;;;;7.60;3.35;;;;;;;14.19;87.57;94448.66;5133770;27;20678;-76
2022/09/12 00:58:22;;;;;;;4.40;2.60;;;;;;;14.15;87.13;94450.50;5120965;27;20193;-76
2022/09/12 01:00:49;;;;;;;3.25;2.53;;;;;;;14.11;87.44;94446.91;5134350;27;20296;-77
2022/09/12 01:03:19;;;;;;;2.75;1.95;;;;;;;14.12;87.07;94440.31;5134319;27;20232;-74
2022/09/12 01:05:57;;;;;;;3.63;2.60;;;;;;;14.02;87.78;94432.69;5134290;27;20221;-74
2022/09/12 01:08:25;;;;;;;3.97;2.83;;;;;;;14.03;87.61;94434.28;5133821;27;20193;-74
2022/09/12 01:10:55;;;;;;;3.20;2.33;;;;;;;13.99;86.83;94438.84;5134144;27;20205;-76
2022/09/12 01:13:23;;;;;;;4.70;2.33;;;;;;;13.97;86.74;94437.59;5133918;27;20292;-75
2022/09/12 01:15:50;;;;;;;5.65;3.47;;;;;;;13.94;86.94;94430.91;5134482;27;20197;-75
2022/09/12 01:18:24;;;;;;;2.88;2.20;;;;;;;13.92;86.69;94435.97;5133543;27;20205;-75
2022/09/12 01:21:03;;;;;;;4.65;1.65;;;;;;;13.97;86.42;94427.50;5133836;27;20739;-77
2022/09/12 01:24:27;;;;;;;2.85;1.92;;;;;;;13.94;86.81;94433.66;5133874;27;20427;-75
2022/09/12 01:27:26;;;;;;;2.15;1.20;;;;;;;14.02;85.37;94423.72;5133313;27;20529;-76
2022/09/12 01:30:20;;;;;;;1.63;1.50;;;;;;;13.93;85.76;94429.38;5133473;27;20297;-75
2022/09/12 01:33:10;;;;;;;3.65;3.30;;;;;;;13.90;85.93;94435.50;5116051;27;20197;-75
2022/09/12 01:35:46;;;;;;;4.32;2.75;;;;;;;13.93;85.31;94429.38;5075595;27;20668;-75
2022/09/12 01:38:25;;;;;;;3.45;3.15;;;;;;;13.85;86.26;94433.06;5133446;27;20709;-74
2022/09/12 01:41:00;;;;;;;3.10;2.75;;;;;;;13.82;86.41;94431.03;5133438;27;20193;-75
2022/09/12 01:43:34;;;;;;;2.38;2.03;;;;;;;13.74;86.63;94442.91;5133321;27;20812;-74
2022/09/12 01:46:11;;;;;;;3.35;2.10;;;;;;;13.69;86.82;94429.53;5133552;27;20229;-75
2022/09/12 01:48:47;;;;;;;1.95;1.65;;;;;;;13.70;86.48;94431.91;5132648;27;20289;-74
2022/09/12 01:51:22;;;;;;;1.67;1.40;;;;;;;13.68;86.61;94427.97;5133292;27;20196;-75
2022/09/12 01:53:54;;;;;;;3.72;1.75;;;;;;;13.63;86.50;94422.78;5132897;27;20663;-75
2022/09/12 01:56:25;;;;;;;3.03;1.92;;;;;;;13.72;86.31;94426.13;5132571;27;20575;-75
2022/09/12 01:58:58;;;;;;;1.75;1.52;;;;;;;13.63;86.30;94420.06;5132563;27;20205;-77
2022/09/12 02:01:28;;;;;;;2.42;1.88;;;;;;;13.66;86.29;94424.81;5132474;27;20675;-75
2022/09/12 02:04:04;;;;;;;2.80;2.03;;;;;;;13.60;86.62;94431.66;5133039;27;20567;-75
2022/09/12 02:06:36;;;;;;;3.83;2.17;;;;;;;13.59;86.81;94419.19;5132965;27;20897;-75
2022/09/12 02:09:08;;;;;;;2.88;1.83;;;;;;;13.60;86.67;94420.78;5132828;27;20553;-76
2022/09/12 02:11:41;;;;;;;1.52;1.42;;;;;;;13.56;86.39;94425.31;5132989;27;20203;-76
2022/09/12 02:14:11;;;;;;;4.35;2.00;;;;;;;13.45;86.54;94420.41;5132749;27;20201;-75
2022/09/12 02:16:42;;;;;;;2.22;1.65;;;;;;;13.53;86.65;94433.03;5133136;27;20527;-75
2022/09/12 02:19:17;;;;;;;5.13;1.95;;;;;;;13.49;87.12;94436.84;5132189;27;20220;-77
2022/09/12 02:21:48;;;;;;;1.60;1.50;;;;;;;13.45;87.06;94425.84;5132621;27;20192;-76
2022/09/12 02:24:17;;;;;;;3.17;1.88;;;;;;;13.41;86.97;94433.13;5132651;27;20261;-75
2022/09/12 02:26:50;;;;;;;2.03;1.75;;;;;;;13.41;87.23;94433.13;5131983;27;20209;-76
2022/09/12 02:29:17;;;;;;;3.22;2.20;;;;;;;13.39;87.01;94432.69;5132297;27;20193;-75
2022/09/12 02:31:46;;;;;;;2.10;1.77;;;;;;;13.35;87.44;94436.47;5132434;27;20208;-75
2022/09/12 02:34:33;;;;;;;2.90;2.00;;;;;;;13.35;86.89;94440.00;5132687;27;20201;-75
2022/09/12 02:37:07;;;;;;;2.58;1.58;;;;;;;13.32;86.54;94437.16;5132527;27;20243;-75
2022/09/12 02:39:35;;;;;;;1.80;1.45;;;;;;;13.30;86.64;94432.06;5132012;27;20232;-75
2022/09/12 02:42:03;;;;;;;1.88;1.60;;;;;;;13.30;86.30;94428.56;5132567;27;20590;-76
2022/09/12 02:44:31;;;;;;;3.10;1.80;;;;;;;13.29;86.23;94433.22;5132196;27;20236;-74
2022/09/12 02:47:04;;;;;;;5.90;2.10;;;;;;;13.28;86.45;94437.06;5132183;27;20205;-75
2022/09/12 02:49:32;;;;;;;1.70;1.50;;;;;;;13.25;86.08;94437.78;5131457;27;20241;-75
2022/09/12 02:52:01;;;;;;;1.88;1.60;;;;;;;13.25;86.49;94437.00;5131585;27;20197;-74
2022/09/12 02:54:29;;;;;;;2.15;1.60;;;;;;;13.23;86.02;94429.19;5131624;27;20209;-75
2022/09/12 02:56:56;;;;;;;2.50;1.20;;;;;;;13.28;85.49;94430.84;5131704;27;20551;-75
2022/09/12 02:59:25;;;;;;;1.67;1.48;;;;;;;13.24;85.71;94435.41;5131426;27;20723;-75
2022/09/12 03:02:14;;;;;;;1.73;1.17;;;;;;;13.30;85.12;94434.78;5131562;27;20208;-74
2022/09/12 03:05:10;;;;;;;3.13;1.63;;;;;;;13.27;85.72;94449.09;5118257;27;20274;-75
2022/09/12 03:08:05;;;;;;;1.33;1.17;;;;;;;13.27;85.74;94454.53;5130863;27;20624;-74
2022/09/12 03:10:40;;;;;;;4.43;1.63;;;;;;;13.32;85.93;94448.84;5128023;27;20253;-77
2022/09/12 03:13:19;;;;;;;2.90;1.95;;;;;;;13.31;85.87;94449.19;5131388;27;20197;-76
2022/09/12 03:15:57;;;;;;;1.75;1.50;;;;;;;13.31;85.98;94446.47;5131575;27;20199;-75
2022/09/12 03:18:38;;;;;;;2.45;1.80;;;;;;;13.32;86.31;94448.84;5130573;27;20596;-76
2022/09/12 03:21:13;;;;;;;1.88;1.23;;;;;;;13.40;86.18;94449.81;5118990;27;20250;-75
2022/09/12 03:23:47;;;;;;;2.13;1.30;;;;;;;13.36;86.28;94443.50;5130995;27;20252;-75
2022/09/12 03:26:20;;;;;;;1.08;0.98;;;;;;;13.36;86.30;94444.28;5131196;27;20181;-75
2022/09/12 03:28:49;;;;;;;2.80;2.15;;;;;;;13.25;86.58;94437.00;5131002;27;20261;-74
2022/09/12 03:31:18;;;;;;;2.10;1.55;;;;;;;13.28;86.91;94452.59;5130975;27;20204;-74
2022/09/12 03:33:45;;;;;;;4.82;1.75;;;;;;;13.35;86.50;94448.16;5131365;27;20205;-76
2022/09/12 03:36:19;;;;;;;2.90;1.90;;;;;;;13.41;86.46;94446.72;5130788;27;20662;-76
2022/09/12 03:38:46;;;;;;;2.60;1.90;;;;;;;13.29;86.86;94438.66;5117890;27;20285;-76
2022/09/12 03:41:13;;;;;;;5.53;2.03;;;;;;;13.27;87.11;94440.13;5130872;27;20261;-74
2022/09/12 03:43:40;;;;;;;2.50;1.98;;;;;;;13.27;86.91;94442.84;5130724;27;20211;-74
2022/09/12 03:46:07;;;;;;;2.22;1.85;;;;;;;13.24;86.87;94436.19;5130988;27;20257;-74
2022/09/12 03:48:34;;;;;;;2.80;2.10;;;;;;;13.22;86.98;94449.34;5129747;27;20843;-72
2022/09/12 03:51:01;;;;;;;2.72;1.70;;;;;;;13.21;87.02;94453.22;5130382;27;20633;-76
2022/09/12 03:53:30;;;;;;;2.35;1.90;;;;;;;13.19;87.06;94455.50;5130521;27;20197;-74
2022/09/12 03:55:57;;;;;;;4.00;2.10;;;;;;;13.21;86.72;94453.22;5130897;27;20287;-75
2022/09/12 03:58:24;;;;;;;4.40;2.22;;;;;;;13.18;87.26;94442.22;5130484;27;20209;-75
2022/09/12 04:00:51;;;;;;;1.55;1.33;;;;;;;13.19;86.92;94450.06;5129486;27;20202;-75
2022/09/12 04:03:18;;;;;;;3.03;1.83;;;;;;;13.25;86.81;94454.09;5116732;27;20254;-75
2022/09/12 04:05:46;;;;;;;1.55;1.40;;;;;;;13.29;86.22;94449.53;5126412;27;20240;-75
2022/09/12 04:08:15;;;;;;;2.67;1.92;;;;;;;13.32;86.43;94454.28;5129898;28;20204;-78
2022/09/12 04:10:43;;;;;;;3.17;2.28;;;;;;;13.36;86.30;94455.16;5129295;28;20201;-76
2022/09/12 04:13:10;;;;;;;2.80;2.38;;;;;;;13.35;86.25;94456.31;5122484;28;20655;-75
2022/09/12 04:15:37;;;;;;;4.10;2.15;;;;;;;13.45;86.24;94463.94;5111576;28;20351;-75
2022/09/12 04:18:04;;;;;;;1.70;1.27;;;;;;;13.81;84.72;94453.94;5132331;27;20256;-80
2022/09/12 04:20:31;;;;;;;5.78;2.53;;;;;;;14.10;83.38;94456.22;5133696;27;20217;-75
2022/09/12 04:22:58;;;;;;;3.78;2.33;;;;;;;14.13;83.14;94455.50;5133800;27;20246;-75
2022/09/12 04:25:26;;;;;;;3.40;2.35;;;;;;;14.05;83.16;94461.94;5134209;27;20220;-76
2022/09/12 04:27:54;;;;;;;4.93;2.50;;;;;;;14.57;82.08;94453.41;5134268;27;20734;-75
2022/09/12 04:30:21;;;;;;;4.22;2.30;;;;;;;15.40;78.29;94451.16;5133872;27;20265;-75
2022/09/12 04:32:47;;;;;;;3.72;2.50;;;;;;;15.75;76.81;94451.03;5134010;27;20208;-75
2022/09/12 04:35:14;;;;;;;4.75;2.60;;;;;;;16.30;74.07;94460.50;5133382;27;20265;-74
2022/09/12 04:37:41;;;;;;;2.28;1.98;;;;;;;16.86;72.22;94457.03;5132318;27;20624;-75
2022/09/12 04:40:09;;;;;;;3.20;2.03;;;;;;;17.00;70.90;94453.69;5133177;27;20201;-75
2022/09/12 04:42:36;;;;;;;3.13;2.83;;;;;;;17.09;71.40;94456.13;5134183;27;20208;-75
2022/09/12 04:45:05;;;;;;;2.88;2.45;;;;;;;17.47;69.80;94447.56;5133999;27;20244;-73
2022/09/12 04:47:31;;;;;;;2.22;1.67;;;;;;;17.34;69.02;94457.22;5134485;27;20227;-78
2022/09/12 04:49:58;;;;;;;3.20;2.53;;;;;;;17.68;68.60;94458.75;5133880;27;20237;-73
2022/09/12 04:52:25;;;;;;;3.75;2.60;;;;;;;18.89;65.64;94456.94;5133807;27;20212;-74
2022/09/12 04:54:52;;;;;;;5.00;2.70;;;;;;;18.70;64.98;94449.81;5133754;27;20727;-74
2022/09/12 04:57:18;;;;;;;2.88;2.33;;;;;;;19.05;64.47;94451.94;5134102;27;20219;-74
2022/09/12 04:59:45;;;;;;;3.22;2.65;;;;;;;19.07;64.08;94452.34;5134045;27;20201;-73
2022/09/12 05:02:13;;;;;;;4.35;2.15;;;;;;;19.36;62.37;94452.44;5133410;27;20200;-74
2022/09/12 05:04:40;;;;;;;2.40;2.20;;;;;;;19.49;62.24;94442.69;5133606;27;20236;-73
2022/09/12 05:07:07;;;;;;;4.60;2.35;;;;;;;19.15;63.11;94442.94;5134151;27;20207;-74
2022/09/12 05:09:34;;;;;;;3.10;2.13;;;;;;;19.21;62.01;94446.13;5133649;27;20209;-73
2022/09/12 05:12:01;;;;;;;3.25;2.05;;;;;;;19.72;60.97;94453.34;5133582;27;20205;-73
2022/09/12 05:14:27;;;;;;;3.03;1.83;;;;;;;19.31;61.96;94448.09;5119872;27;20205;-73
2022/09/12 05:16:58;;;;;;;4.65;2.25;;;;;;;19.44;60.63;94445.78;5133657;27;20229;-79
2022/09/12 05:19:26;;;;;;;2.10;1.90;;;;;;;19.76;60.18;94443.94;5131130;27;20239;-72
2022/09/12 05:21:53;;;;;;;3.03;2.33;;;;;;;19.86;60.71;94445.91;5132781;27;20421;-72
2022/09/12 05:24:20;;;;;;;2.30;1.88;;;;;;;19.50;60.65;94456.06;5132055;27;20192;-71
2022/09/12 05:26:47;;;;;;;8.20;3.60;;;;;;;19.55;60.62;94452.13;5131426;27;20272;-73
2022/09/12 05:29:14;;;;;;;2.72;1.92;;;;;;;20.15;59.03;94451.44;5130496;27;20201;-73
2022/09/12 05:31:40;;;;;;;7.03;2.03;;;;;;;20.89;57.07;94445.09;5128898;27;20301;-71
2022/09/12 05:34:08;;;;;;;2.47;2.28;;;;;;;20.61;57.53;94443.19;5129118;27;20378;-70
2022/09/12 05:36:37;;;;;;;4.22;2.83;;;;;;;20.25;58.19;94450.63;5129986;27;20196;-69
2022/09/12 05:39:04;;;;;;;2.85;2.55;;;;;;;20.18;57.79;94445.16;5132397;27;20196;-74
2022/09/12 05:41:33;;;;;;;3.78;2.30;;;;;;;21.17;56.12;94456.00;5132538;27;20212;-71
2022/09/12 05:44:01;;;;;;;2.65;2.08;;;;;;;21.07;55.07;94443.03;5132404;27;20209;-72
2022/09/12 05:46:31;;;;;;;3.38;2.15;;;;;;;21.02;55.71;94446.22;5129469;27;20228;-72
2022/09/12 05:49:02;;;;;;;4.47;2.00;;;;;;;19.99;57.56;94445.53;5132001;27;20217;-74
2022/09/12 05:51:32;;;;;;;2.67;2.30;;;;;;;20.10;58.11;94438.06;5130130;27;20204;-71
2022/09/12 05:54:03;;;;;;;3.17;2.50;;;;;;;20.49;57.11;94443.59;5130993;27;20204;-72
2022/09/12 05:56:32;;;;;;;4.85;3.00;;;;;;;21.38;54.76;94440.59;5130909;27;20284;-72
2022/09/12 05:59:00;;;;;;;4.78;1.85;;;;;;;20.35;57.32;94441.59;5132004;27;20189;-72
2022/09/12 06:01:28;;;;;;;2.88;2.50;;;;;;;20.89;55.95;94431.31;5131379;27;20205;-71
2022/09/12 06:03:59;;;;;;;2.97;2.50;;;;;;;21.07;55.49;94429.25;5131086;27;20216;-72
2022/09/12 06:06:27;;;;;;;3.67;2.50;;;;;;;21.81;53.31;94424.59;5129248;27;20220;-70
2022/09/12 06:08:58;;;;;;;3.40;2.67;;;;;;;22.32;51.53;94421.06;5131729;27;20570;-81
2022/09/12 06:11:28;;;;;;;4.20;3.55;;;;;;;23.41;49.86;94412.81;5131461;27;20189;-71
2022/09/12 06:13:56;;;;;;;3.80;2.70;;;;;;;23.86;48.90;94410.66;5132479;27;20204;-70
2022/09/12 06:16:25;;;;;;;2.95;2.33;;;;;;;23.08;49.48;94406.13;5132468;27;20205;-71
2022/09/12 06:18:54;;;;;;;4.13;3.03;;;;;;;21.27;54.32;94422.13;5131341;27;21014;-70
2022/09/12 06:21:22;;;;;;;5.00;2.42;;;;;;;21.69;53.80;94425.84;5132143;27;20208;-71
2022/09/12 06:23:49;;;;;;;3.38;2.28;;;;;;;22.18;51.78;94415.69;5131974;27;20655;-71
2022/09/12 06:26:20;;;;;;;3.80;3.22;;;;;;;23.46;48.43;94419.88;5131807;27;20601;-74
2022/09/12 06:28:49;;;;;;;3.50;3.20;;;;;;;21.36;52.64;94427.22;5131873;27;20292;-72
2022/09/12 06:31:18;;;;;;;4.80;3.35;;;;;;;20.61;55.33;94436.88;5132133;27;20208;-72
2022/09/12 06:33:47;;;;;;;5.50;3.08;;;;;;;20.61;55.78;94437.69;5132126;27;20269;-75
2022/09/12 06:36:16;;;;;;;5.85;2.80;;;;;;;20.67;55.53;94446.28;5131314;27;20291;-72
2022/09/12 06:38:44;;;;;;;3.50;2.78;;;;;;;21.05;55.03;94445.41;5132105;27;20205;-72
2022/09/12 06:41:12;;;;;;;3.08;2.55;;;;;;;20.45;55.73;94451.84;5131358;27;20211;-73
2022/09/12 06:43:40;;;;;;;4.22;2.97;;;;;;;20.63;55.74;94454.59;5118546;27;20224;-72
2022/09/12 06:46:09;;;;;;;5.65;3.15;;;;;;;22.03;53.54;94450.06;5131502;27;20702;-74
2022/09/12 06:48:36;;;;;;;7.95;2.97;;;;;;;22.92;50.82;94444.59;5131460;27;20232;-74
2022/09/12 06:51:05;;;;;;;5.13;2.60;;;;;;;22.18;52.01;94460.63;5131921;27;20262;-73
2022/09/12 06:53:35;;;;;;;3.00;2.60;;;;;;;21.63;54.03;94460.53;5131682;27;20201;-76
2022/09/12 06:56:05;;;;;;;4.30;3.90;;;;;;;20.83;56.69;94455.72;5131160;27;20690;-74
2022/09/12 06:58:33;;;;;;;6.95;4.18;;;;;;;22.12;53.74;94456.72;5131216;27;20258;-75
2022/09/12 07:01:04;;;;;;;4.47;3.33;;;;;;;21.12;56.57;94458.38;5130048;27;20299;-81
2022/09/12 07:03:33;;;;;;;4.30;3.08;;;;;;;20.35;59.03;94477.38;5131087;27;20305;-75
2022/09/12 07:06:03;;;;;;;3.88;3.22;;;;;;;19.13;60.81;94480.97;5132015;27;20236;-76
2022/09/12 07:08:30;;;;;;;5.72;3.70;;;;;;;19.54;59.85;94485.50;5130959;27;20704;-72
2022/09/12 07:11:00;;;;;;;2.85;2.45;;;;;;;19.75;60.27;94480.84;5130852;27;20236;-73
2022/09/12 07:13:27;;;;;;;3.92;3.53;;;;;;;21.00;57.52;94470.63;5130803;27;20209;-74
2022/09/12 07:15:54;;;;;;;2.88;2.58;;;;;;;20.32;56.70;94469.91;5130751;27;20200;-74
2022/09/12 07:18:21;;;;;;;3.40;3.10;;;;;;;20.70;56.82;94467.53;5130904;27;20233;-74
2022/09/12 07:20:49;;;;;;;3.95;3.20;;;;;;;19.98;57.87;94476.94;5130799;27;20201;-72
2022/09/12 07:23:16;;;;;;;3.30;3.00;;;;;;;19.74;58.37;94484.75;5130754;27;20771;-74
2022/09/12 07:25:42;;;;;;;3.70;2.75;;;;;;;19.31;59.32;94483.03;5128920;27;20229;-72
2022/09/12 07:28:09;;;;;;;5.45;3.70;;;;;;;18.86;61.12;94479.66;5130208;27;20229;-73
2022/09/12 07:30:38;;;;;;;3.63;2.80;;;;;;;19.54;60.11;94491.00;5130574;27;20273;-76
2022/09/12 07:33:05;;;;;;;3.70;2.53;;;;;;;19.32;59.28;94484.59;5130686;27;20687;-73
2022/09/12 07:35:33;;;;;;;3.95;3.28;;;;;;;19.80;59.03;94477.72;5116585;27;20204;-73
2022/09/12 07:38:02;;;;;;;1.95;1.80;;;;;;;19.46;58.43;94468.16;5130212;27;20205;-73
2022/09/12 07:40:29;;;;;;;3.33;2.88;;;;;;;20.16;57.55;94475.78;5129782;27;20785;-71
2022/09/12 07:42:56;;;;;;;3.55;3.10;;;;;;;20.56;56.65;94473.84;5130743;27;20288;-73
2022/09/12 07:45:23;;;;;;;3.28;2.85;;;;;;;20.13;56.58;94484.03;5130475;27;20228;-72
2022/09/12 07:47:53;;;;;;;6.15;4.38;;;;;;;20.30;58.08;94472.25;5130415;27;20250;-73
2022/09/12 07:50:20;;;;;;;5.78;3.95;;;;;;;19.90;57.76;94472.63;5130436;27;20243;-72
2022/09/12 07:52:47;;;;;;;4.68;4.18;;;;;;;19.82;58.41;94467.09;5129643;27;20200;-70
2022/09/12 07:55:15;;;;;;;4.80;4.30;;;;;;;19.81;58.54;94473.00;5130311;27;20209;-72
2022/09/12 07:57:42;;;;;;;4.65;4.22;;;;;;;19.37;58.13;94481.50;5129612;27;20292;-72
2022/09/12 08:00:10;;;;;;;4.60;3.67;;;;;;;19.19;57.69;94481.41;5129952;27;20228;-72
2022/09/12 08:02:36;;;;;;;5.15;4.15;;;;;;;19.46;58.32;94492.91;5130304;27;20197;-71
2022/09/12 08:05:04;;;;;;;4.47;4.07;;;;;;;19.03;58.17;94478.97;5130146;27;20342;-70
2022/09/12 08:07:30;;;;;;;4.85;4.00;;;;;;;19.29;57.73;94477.13;5130533;27;20313;-73
2022/09/12 08:09:58;;;;;;;3.90;3.50;;;;;;;19.37;57.64;94481.50;5129505;27;20990;-73
2022/09/12 08:12:31;;;;;;;5.68;3.47;;;;;;;18.79;58.19;94476.91;5129956;28;20488;-74
2022/09/12 08:14:57;;;;;;;3.28;2.92;;;;;;;18.69;59.58;94486.66;5130306;28;20275;-72
2022/09/12 08:17:24;;;;;;;2.95;2.40;;;;;;;19.13;58.93;94480.97;5129923;27;20208;-77
2022/09/12 08:19:51;;;;;;;3.45;2.80;;;;;;;19.06;58.98;94472.72;5130251;27;20201;-74
2022/09/12 08:22:20;;;;;;;3.00;2.70;;;;;;;18.68;59.76;94474.09;5129899;28;20295;-73
2022/09/12 08:24:47;;;;;;;7.15;2.53;;;;;;;19.11;59.23;94475.13;5129811;28;20207;-75
2022/09/12 08:27:15;;;;;;;3.97;3.30;;;;;;;19.14;58.17;94474.31;5124307;27;20241;-70
2022/09/12 08:29:43;;;;;;;2.08;1.75;;;;;;;19.00;58.92;94482.50;5122097;28;20197;-75
2022/09/12 08:32:10;;;;;;;2.50;2.17;;;;;;;19.19;59.17;94473.16;5129883;27;20265;-73
2022/09/12 08:34:37;;;;;;;1.45;1.35;;;;;;;19.54;58.68;94472.56;5129973;27;20663;-73
2022/09/12 08:37:04;;;;;;;3.80;3.03;;;;;;;19.82;57.95;94480.06;5129835;28;20201;-73
2022/09/12 08:39:31;;;;;;;3.30;2.92;;;;;;;19.79;57.67;94476.16;5129340;28;20670;-71
2022/09/12 08:42:01;;;;;;;4.32;2.75;;;;;;;20.24;57.28;94476.56;5129124;28;20197;-72
2022/09/12 08:44:54;;;;;;;3.17;2.88;;;;;;;20.71;55.62;94474.63;5129366;28;20336;-73
2022/09/12 08:47:27;;;;;;;4.18;2.28;;;;;;;20.89;55.21;94469.88;5130057;28;20349;-73
2022/09/12 08:50:01;;;;;;;2.95;2.30;;;;;;;19.94;56.34;94476.19;5129579;27;20221;-72
2022/09/12 08:52:33;;;;;;;3.95;2.63;;;;;;;19.86;57.64;94478.09;5129851;27;20193;-74
2022/09/12 08:55:01;;;;;;;4.70;3.10;;;;;;;20.11;57.99;94469.88;5115992;28;20740;-73
2022/09/12 08:57:29;;;;;;;2.47;2.05;;;;;;;19.92;56.71;94473.81;5129541;28;20605;-71
2022/09/12 08:59:57;;;;;;;3.35;2.70;;;;;;;19.55;57.59;94471.34;5129608;28;20274;-71
2022/09/12 09:02:40;;;;;;;2.58;2.28;;;;;;;19.69;57.11;94471.41;5129761;27;20197;-74
2022/09/12 09:05:18;;;;;;;3.50;3.20;;;;;;;20.09;55.50;94464.00;5133262;27;20300;-72
2022/09/12 09:08:25;;;;;;;3.47;3.17;;;;;;;19.46;55.92;94465.41;5134020;27;20336;-77
2022/09/12 09:11:03;;;;;;;5.55;3.75;;;;;;;19.55;56.65;94465.88;5062815;28;20231;-72
2022/09/12 09:16:35;;;;;;;4.57;2.22;;;;;;;19.04;57.63;94469.56;5130707;27;20199;-75
2022/09/12 09:19:05;;;;;;;3.97;3.58;;;;;;;19.14;58.20;94463.34;5133605;27;20267;-72
2022/09/12 09:21:39;;;;;;;3.92;3.50;;;;;;;19.69;57.88;94465.91;5133353;27;20674;-72
2022/09/12 09:24:11;;;;;;;4.75;3.58;;;;;;;20.30;56.66;94450.25;5132958;27;20607;-71
2022/09/12 09:26:46;;;;;;;3.65;2.55;;;;;;;20.41;54.91;94451.06;5132891;27;20225;-71
2022/09/12 09:29:18;;;;;;;3.50;3.05;;;;;;;20.82;55.18;94440.38;5133261;27;20185;-71
2022/09/12 09:31:49;;;;;;;4.18;3.47;;;;;;;20.73;55.10;94439.22;5132935;27;20192;-72
2022/09/12 09:34:20;;;;;;;3.40;3.10;;;;;;;20.95;53.29;94429.72;5133043;27;20234;-73
2022/09/12 09:36:57;;;;;;;4.20;2.85;;;;;;;20.22;52.98;94445.94;5133062;27;20201;-79
2022/09/12 09:39:42;;;;;;;2.75;2.55;;;;;;;19.81;56.04;94440.81;5132656;27;20611;-77
2022/09/12 09:42:23;;;;;;;4.13;3.72;;;;;;;20.21;54.97;94425.13;5120005;27;20253;-70
2022/09/12 09:44:54;;;;;;;2.80;2.60;;;;;;;20.27;53.92;94426.28;5132106;27;20609;-78
2022/09/12 09:47:22;;;;;;;2.65;2.45;;;;;;;20.64;53.82;94441.59;5132710;27;20228;-71
2022/09/12 09:49:49;;;;;;;3.10;2.78;;;;;;;20.81;53.73;94432.50;5132279;27;20232;-71
2022/09/12 09:52:28;;;;;;;4.30;2.85;;;;;;;20.44;54.26;94432.97;5132644;27;20212;-71
2022/09/12 09:54:58;;;;;;;2.60;2.35;;;;;;;20.32;54.42;94428.63;5132777;27;20197;-72
2022/09/12 09:57:45;;;;;;;3.50;2.72;;;;;;;20.40;54.38;94429.44;5132919;27;20196;-72
2022/09/12 10:00:31;;;;;;;4.88;2.90;;;;;;;20.71;54.80;94430.56;5132282;27;20567;-70
2022/09/12 10:03:03;;;;;;;2.20;2.00;;;;;;;20.59;53.46;94429.03;5132194;27;20201;-71
2022/09/12 10:05:31;;;;;;;3.03;2.50;;;;;;;20.65;53.92;94426.63;5132323;27;20273;-72
2022/09/12 10:07:58;;;;;;;3.30;2.78;;;;;;;20.61;53.90;94421.16;5132456;27;20806;-71
2022/09/12 10:10:25;;;;;;;3.33;2.97;;;;;;;20.70;53.95;94421.53;5132167;27;20204;-73
2022/09/12 10:13:07;;;;;;;3.10;2.80;;;;;;;20.36;53.14;94417.66;5132023;27;20208;-74
2022/09/12 10:15:35;;;;;;;2.08;1.88;;;;;;;20.31;52.50;94429.81;5131504;27;20209;-75
2022/09/12 10:18:03;;;;;;;3.13;2.70;;;;;;;20.12;53.99;94430.19;5131975;27;20700;-70
2022/09/12 10:20:33;;;;;;;4.03;2.70;;;;;;;19.81;54.28;94413.31;5131689;27;20213;-80
2022/09/12 10:23:02;;;;;;;2.38;2.17;;;;;;;19.82;54.23;94403.09;5132741;27;20205;-76
2022/09/12 10:25:29;;;;;;;5.13;3.42;;;;;;;20.05;54.96;94413.72;5131894;27;20204;-71
2022/09/12 10:27:58;;;;;;;2.58;2.13;;;;;;;19.77;54.95;94429.00;5131748;27;20226;-74
2022/09/12 10:30:27;;;;;;;4.15;3.75;;;;;;;19.74;55.76;94421.53;5131255;27;20201;-73
2022/09/12 10:33:00;;;;;;;5.60;4.07;;;;;;;20.16;55.38;94409.00;5131459;27;20258;-72
2022/09/12 10:35:42;;;;;;;4.95;4.00;;;;;;;20.38;54.62;94416.06;5132291;27;20217;-75
2022/09/12 10:38:18;;;;;;;4.85;4.20;;;;;;;20.68;53.36;94423.88;5131671;27;20238;-74
2022/09/12 10:40:45;;;;;;;4.65;4.13;;;;;;;20.35;54.32;94414.09;5131780;27;20368;-72
2022/09/12 10:43:17;;;;;;;5.93;4.43;;;;;;;20.83;54.19;94416.38;5131798;27;20225;-72
2022/09/12 10:45:44;;;;;;;3.67;3.22;;;;;;;20.40;54.85;94416.47;5130835;27;20655;-79
2022/09/12 10:48:27;;;;;;;6.30;4.20;;;;;;;20.60;54.33;94419.59;5130686;27;20303;-75
2022/09/12 10:50:56;;;;;;;3.40;2.83;;;;;;;20.61;51.72;94415.66;5130825;27;20186;-74
2022/09/12 10:53:25;;;;;;;4.28;3.88;;;;;;;20.57;51.61;94418.41;5124158;27;20305;-73
2022/09/12 10:56:05;;;;;;;5.05;3.50;;;;;;;20.54;51.35;94421.94;5130701;27;20666;-74
2022/09/12 10:59:04;;;;;;;3.53;2.50;;;;;;;20.69;51.03;94411.69;5130287;27;20204;-72
2022/09/12 11:01:42;;;;;;;5.80;2.28;;;;;;;20.33;52.32;94416.44;5081457;27;20205;-71
2022/09/12 11:04:26;;;;;;;3.53;3.22;;;;;;;20.29;53.03;94432.16;5130149;27;20276;-71
2022/09/12 11:07:06;;;;;;;4.15;3.55;;;;;;;20.65;53.46;94418.38;5130634;27;20565;-73
2022/09/12 11:09:38;;;;;;;2.70;2.47;;;;;;;21.06;51.87;94424.16;5131250;27;20325;-75
2022/09/12 11:12:14;;;;;;;4.80;4.40;;;;;;;21.23;51.51;94418.59;5130994;27;20700;-72
2022/09/12 11:14:54;;;;;;;3.15;2.85;;;;;;;21.60;49.49;94419.97;5118252;27;20639;-78
2022/09/12 11:17:33;;;;;;;8.32;4.00;;;;;;;21.72;49.46;94416.78;5130860;27;20229;-73
2022/09/12 11:20:25;;;;;;;5.70;4.13;;;;;;;21.29;51.30;94421.75;5131502;27;20196;-72
2022/09/12 11:23:13;;;;;;;4.20;3.75;;;;;;;20.33;52.82;94424.72;5118758;27;20253;-72
2022/09/12 11:25:48;;;;;;;5.50;4.20;;;;;;;19.87;52.84;94419.97;5130822;27;20189;-74
2022/09/12 11:28:35;;;;;;;4.60;4.18;;;;;;;19.97;52.49;94418.41;5130010;27;20269;-72
2022/09/12 11:31:26;;;;;;;4.55;4.07;;;;;;;20.23;52.46;94411.72;5123453;27;20253;-71
2022/09/12 11:33:53;;;;;;;6.50;4.35;;;;;;;19.98;54.38;94405.44;5130679;27;20236;-72
2022/09/12 11:36:30;;;;;;;5.53;3.72;;;;;;;20.16;53.62;94412.53;5130610;27;20200;-73
2022/09/12 11:39:12;;;;;;;5.13;3.97;;;;;;;20.12;53.06;94405.44;5130822;27;20188;-72
2022/09/12 11:41:42;;;;;;;4.38;2.33;;;;;;;20.15;54.14;94394.44;5127488;27;21580;-80
2022/09/12 11:44:16;;;;;;;3.55;2.90;;;;;;;20.37;53.75;94411.75;5121289;27;20204;-72
2022/09/12 11:46:44;;;;;;;3.92;3.20;;;;;;;20.37;53.74;94405.44;5130067;27;20839;-72
2022/09/12 11:49:24;;;;;;;5.57;3.88;;;;;;;20.07;54.82;94403.13;5130477;27;20221;-77
2022/09/12 11:51:56;;;;;;;5.45;4.15;;;;;;;20.34;55.04;94412.53;5119654;27;20684;-72
2022/09/12 11:54:29;;;;;;;4.43;3.80;;;;;;;20.55;55.45;94412.50;5127755;27;20205;-73
2022/09/12 11:57:06;;;;;;;4.72;3.42;;;;;;;20.18;55.24;94409.38;5125562;27;20537;-75